createdAt,value
2019-02-06T00:00:43.297Z,8.73
2019-02-06T00:03:14.200Z,8.77
2019-02-06T00:05:43.477Z,8.23
2019-02-06T00:08:12.658Z,7.87
2019-02-06T00:10:41.874Z,7.67
2019-02-06T00:13:11.109Z,8.50
2019-02-06T00:15:40.330Z,9.27
2019-02-06T00:18:10.071Z,9.73
2019-02-06T00:20:39.282Z,8.77
2019-02-06T00:23:08.510Z,8.10
2019-02-06T00:25:37.765Z,8.13
2019-02-06T00:28:06.993Z,8.10
2019-02-06T00:30:36.221Z,7.60
2019-02-06T00:33:05.890Z,7.20
2019-02-06T00:35:35.106Z,8.60
2019-02-06T00:38:05.434Z,8.23
2019-02-06T00:40:34.924Z,7.13
2019-02-06T00:43:04.143Z,8.30
2019-02-06T00:45:33.370Z,8.03
2019-02-06T00:48:02.930Z,8.07
2019-02-06T00:50:32.118Z,8.47
2019-02-06T00:53:01.372Z,8.00
2019-02-06T00:55:30.554Z,7.63
2019-02-06T00:57:59.749Z,8.07
2019-02-06T01:00:28.975Z,8.20
2019-02-06T01:02:58.663Z,7.97
2019-02-06T01:05:38.062Z,7.97
2019-02-06T01:07:59.201Z,8.23
2019-02-06T01:10:28.435Z,6.77
2019-02-06T01:12:57.716Z,7.73
2019-02-06T01:15:26.870Z,7.53
2019-02-06T01:17:56.606Z,7.47
2019-02-06T01:20:25.812Z,7.03
2019-02-06T01:22:55.014Z,7.00
2019-02-06T01:25:24.219Z,7.40
2019-02-06T01:27:53.432Z,7.37
2019-02-06T01:30:24.619Z,6.47
2019-02-06T01:32:53.859Z,6.80
2019-02-06T01:35:23.032Z,6.40
2019-02-06T01:37:52.286Z,7.10
2019-02-06T01:40:21.472Z,6.57
2019-02-06T01:42:50.638Z,7.00
2019-02-06T01:45:20.785Z,6.93
2019-02-06T01:47:49.949Z,6.70
2019-02-06T01:50:19.533Z,6.80
2019-02-06T01:52:48.749Z,6.57
2019-02-06T01:55:17.923Z,6.10
2019-02-06T01:57:47.171Z,7.07
2019-02-06T02:00:18.449Z,6.83
2019-02-06T02:02:47.689Z,6.47
2019-02-06T02:05:18.872Z,6.83
2019-02-06T02:07:48.693Z,6.90
2019-02-06T02:10:18.402Z,7.07
2019-02-06T02:12:47.642Z,6.57
2019-02-06T02:15:16.910Z,7.00
2019-02-06T02:17:46.368Z,6.53
2019-02-06T02:20:17.577Z,6.80
2019-02-06T02:22:46.758Z,6.83
2019-02-06T02:25:15.982Z,5.87
2019-02-06T02:27:45.189Z,7.00
2019-02-06T02:30:17.387Z,6.20
2019-02-06T02:32:46.620Z,6.97
2019-02-06T02:35:15.844Z,6.00
2019-02-06T02:37:45.017Z,6.70
2019-02-06T02:40:14.294Z,5.63
2019-02-06T02:42:43.537Z,5.90
2019-02-06T02:45:13.886Z,5.53
2019-02-06T02:47:43.095Z,6.03
2019-02-06T02:50:12.314Z,5.67
2019-02-06T02:52:41.853Z,6.07
2019-02-06T02:55:11.172Z,6.43
2019-02-06T02:57:40.418Z,6.20
2019-02-06T03:00:13.960Z,5.67
2019-02-06T03:03:03.192Z,6.33
2019-02-06T03:05:34.701Z,5.90
2019-02-06T03:08:04.185Z,5.83
2019-02-06T03:10:33.716Z,5.90
2019-02-06T03:13:03.557Z,5.70
2019-02-06T03:15:32.738Z,5.50
2019-02-06T03:18:01.963Z,5.30
2019-02-06T03:20:31.207Z,5.50
2019-02-06T03:23:00.422Z,5.40
2019-02-06T03:25:29.609Z,5.60
2019-02-06T03:27:58.807Z,5.77
2019-02-06T03:30:28.023Z,6.10
2019-02-06T03:32:57.207Z,5.20
2019-02-06T03:35:26.395Z,5.43
2019-02-06T03:37:55.593Z,5.90
2019-02-06T03:40:24.807Z,5.73
2019-02-06T03:42:54.050Z,5.63
2019-02-06T03:45:23.252Z,6.17
2019-02-06T03:47:52.439Z,4.97
2019-02-06T03:50:21.633Z,5.40
2019-02-06T03:52:50.838Z,5.73
2019-02-06T03:55:20.057Z,5.30
2019-02-06T03:57:49.254Z,5.40
2019-02-06T04:00:18.999Z,5.10
2019-02-06T04:02:48.190Z,5.73
2019-02-06T04:05:17.839Z,5.23
2019-02-06T04:07:47.748Z,5.00
2019-02-06T04:10:17.018Z,5.70
2019-02-06T04:12:46.209Z,5.20
2019-02-06T04:15:16.619Z,5.30
2019-02-06T04:17:46.069Z,5.63
2019-02-06T04:20:15.294Z,5.37
2019-02-06T04:22:44.503Z,4.70
2019-02-06T04:25:13.702Z,5.03
2019-02-06T04:27:42.883Z,5.17
2019-02-06T04:30:13.239Z,4.63
2019-02-06T04:32:42.807Z,4.90
2019-02-06T04:35:12.465Z,5.33
2019-02-06T04:37:41.668Z,5.40
2019-02-06T04:40:14.015Z,5.17
2019-02-06T04:42:43.239Z,4.97
2019-02-06T04:45:13.126Z,4.60
2019-02-06T04:47:42.335Z,5.13
2019-02-06T04:50:12.373Z,4.97
2019-02-06T04:52:41.567Z,4.93
2019-02-06T04:55:11.964Z,4.70
2019-02-06T04:57:41.201Z,4.67
2019-02-06T05:00:14.666Z,4.80
2019-02-06T05:02:44.073Z,4.90
2019-02-06T05:05:13.270Z,4.50
2019-02-06T05:07:42.511Z,5.17
2019-02-06T05:10:12.322Z,4.73
2019-02-06T05:12:41.530Z,4.83
2019-02-06T05:15:11.006Z,4.67
2019-02-06T05:17:40.230Z,4.40
2019-02-06T05:20:19.287Z,4.93
2019-02-06T05:22:48.616Z,4.73
2019-02-06T05:25:17.811Z,4.73
2019-02-06T05:27:48.131Z,4.57
2019-02-06T05:30:17.336Z,4.73
2019-02-06T05:32:46.555Z,5.13
2019-02-06T05:35:15.806Z,4.40
2019-02-06T05:37:45.045Z,4.40
2019-02-06T05:40:14.546Z,4.10
2019-02-06T05:42:44.172Z,4.10
2019-02-06T05:45:13.517Z,4.00
2019-02-06T05:47:42.683Z,3.70
2019-02-06T05:50:12.218Z,3.73
2019-02-06T05:52:41.390Z,3.67
2019-02-06T05:55:10.654Z,3.77
2019-02-06T05:57:39.885Z,4.40
2019-02-06T06:00:15.211Z,4.00
2019-02-06T06:02:44.424Z,4.03
2019-02-06T06:05:13.602Z,4.17
2019-02-06T06:07:45.186Z,4.57
2019-02-06T06:10:15.065Z,3.40
2019-02-06T06:12:44.807Z,4.30
2019-02-06T06:15:15.450Z,3.30
2019-02-06T06:17:44.695Z,3.87
2019-02-06T06:20:15.119Z,4.17
2019-02-06T06:22:44.334Z,3.87
2019-02-06T06:25:15.427Z,4.00
2019-02-06T06:27:45.145Z,4.13
2019-02-06T06:30:16.652Z,4.17
2019-02-06T06:32:45.858Z,4.97
2019-02-06T06:35:15.240Z,4.43
2019-02-06T06:37:57.161Z,4.60
2019-02-06T06:40:17.961Z,4.73
2019-02-06T06:42:47.826Z,4.80
2019-02-06T06:45:18.860Z,5.20
2019-02-06T06:47:48.077Z,4.83
2019-02-06T06:50:19.571Z,4.87
2019-02-06T06:52:48.762Z,5.10
2019-02-06T06:55:18.025Z,5.57
2019-02-06T06:57:47.461Z,5.47
2019-02-06T07:00:27.050Z,5.47
2019-02-06T07:02:56.321Z,5.57
2019-02-06T07:05:25.563Z,5.60
2019-02-06T07:07:54.825Z,5.03
2019-02-06T07:10:24.820Z,5.30
2019-02-06T07:12:54.043Z,5.43
2019-02-06T07:15:28.980Z,5.67
2019-02-06T07:17:58.245Z,5.73
2019-02-06T07:20:27.515Z,5.97
2019-02-06T07:22:56.745Z,6.17
2019-02-06T07:25:25.922Z,5.83
2019-02-06T07:27:55.098Z,5.40
2019-02-06T07:30:26.606Z,6.13
2019-02-06T07:32:55.778Z,7.40
2019-02-06T07:35:24.977Z,8.17
2019-02-06T07:37:54.466Z,7.80
2019-02-06T07:40:23.646Z,9.10
2019-02-06T07:42:53.493Z,8.07
2019-02-06T07:45:22.725Z,8.30
2019-02-06T07:47:52.892Z,8.50
2019-02-06T07:50:27.101Z,8.17
2019-02-06T07:52:56.738Z,8.90
2019-02-06T07:55:25.928Z,8.07
2019-02-06T07:57:55.151Z,8.47
2019-02-06T08:00:24.404Z,8.53
2019-02-06T08:02:53.899Z,9.97
2019-02-06T08:05:23.107Z,9.07
2019-02-06T08:07:52.337Z,9.30
2019-02-06T08:10:23.673Z,9.67
2019-02-06T08:12:52.874Z,9.80
2019-02-06T08:15:22.089Z,11.13
2019-02-06T08:17:51.282Z,9.13
2019-02-06T08:20:20.599Z,9.57
2019-02-06T08:22:49.846Z,10.70
2019-02-06T08:25:19.106Z,10.03
2019-02-06T08:27:48.291Z,9.20
2019-02-06T08:30:20.309Z,10.13
2019-02-06T08:32:49.714Z,10.00
2019-02-06T08:35:18.957Z,10.00
2019-02-06T08:37:48.930Z,9.20
2019-02-06T08:40:18.326Z,9.40
2019-02-06T08:42:47.545Z,9.53
2019-02-06T08:45:16.737Z,9.20
2019-02-06T08:47:46.003Z,9.50
2019-02-06T08:50:15.433Z,9.30
2019-02-06T08:52:45.111Z,9.73
2019-02-06T08:55:17.041Z,8.90
2019-02-06T08:57:46.270Z,9.57
2019-02-06T09:00:18.855Z,8.97
2019-02-06T09:02:48.104Z,9.87
2019-02-06T09:05:17.299Z,9.60
2019-02-06T09:07:46.861Z,9.47
2019-02-06T09:10:17.525Z,8.40
2019-02-06T09:12:46.709Z,9.50
2019-02-06T09:15:15.930Z,8.83
2019-02-06T09:17:45.133Z,8.70
2019-02-06T09:20:17.087Z,8.80
2019-02-06T09:22:46.678Z,8.40
2019-02-06T09:25:17.308Z,8.80
2019-02-06T09:27:46.474Z,8.73
2019-02-06T09:30:18.294Z,9.03
2019-02-06T09:32:47.505Z,8.40
2019-02-06T09:35:17.078Z,8.13
2019-02-06T09:37:46.674Z,7.83
2019-02-06T09:40:17.629Z,8.67
2019-02-06T09:42:46.886Z,7.77
2019-02-06T09:45:16.146Z,8.63
2019-02-06T09:47:45.372Z,8.17
2019-02-06T09:50:23.465Z,7.43
2019-02-06T09:52:52.630Z,7.03
2019-02-06T09:55:21.849Z,8.10
2019-02-06T09:57:51.614Z,7.77
2019-02-06T10:00:28.856Z,7.87
2019-02-06T10:02:58.053Z,8.53
2019-02-06T10:05:27.529Z,7.50
2019-02-06T10:07:57.045Z,8.27
2019-02-06T10:10:26.289Z,8.20
2019-02-06T10:12:55.504Z,8.10
2019-02-06T10:15:26.473Z,8.10
2019-02-06T10:17:56.928Z,7.83
2019-02-06T10:20:28.535Z,7.77
2019-02-06T10:22:57.725Z,8.53
2019-02-06T10:25:26.918Z,7.40
2019-02-06T10:27:56.109Z,6.40
2019-02-06T10:30:30.729Z,7.87
2019-02-06T10:33:00.233Z,7.23
2019-02-06T10:35:29.480Z,7.27
2019-02-06T10:37:58.670Z,7.60
2019-02-06T10:40:28.193Z,7.37
2019-02-06T10:42:57.405Z,7.00
2019-02-06T10:45:26.662Z,6.50
2019-02-06T10:47:56.271Z,7.13
2019-02-06T10:50:28.237Z,6.60
2019-02-06T10:52:57.691Z,6.70
2019-02-06T10:55:26.907Z,6.43
2019-02-06T10:57:56.149Z,7.03
2019-02-06T11:00:29.913Z,7.40
2019-02-06T11:02:59.055Z,6.70
2019-02-06T11:05:28.230Z,6.73
2019-02-06T11:07:57.741Z,6.73
2019-02-06T11:10:27.072Z,6.40
2019-02-06T11:12:56.302Z,6.40
2019-02-06T11:15:25.780Z,6.57
2019-02-06T11:17:55.626Z,6.13
2019-02-06T11:20:24.922Z,6.10
2019-02-06T11:22:54.180Z,5.63
2019-02-06T11:25:23.409Z,5.00
2019-02-06T11:27:52.899Z,5.03
2019-02-06T11:30:24.267Z,4.60
2019-02-06T11:32:53.534Z,4.60
2019-02-06T11:35:23.022Z,4.70
2019-02-06T11:37:52.308Z,4.60
2019-02-06T11:40:23.573Z,4.70
2019-02-06T11:42:52.766Z,4.90
2019-02-06T11:45:24.382Z,5.10
2019-02-06T11:47:53.555Z,4.70
2019-02-06T11:50:26.679Z,4.30
2019-02-06T11:52:55.858Z,4.37
2019-02-06T11:55:25.368Z,4.17
2019-02-06T11:57:54.900Z,4.30
2019-02-06T12:00:42.890Z,4.33
2019-02-06T12:03:12.129Z,3.97
2019-02-06T12:05:41.315Z,4.47
2019-02-06T12:08:12.666Z,4.30
2019-02-06T12:10:41.842Z,4.17
2019-02-06T12:13:11.046Z,4.17
2019-02-06T12:15:40.243Z,4.13
2019-02-06T12:18:09.459Z,3.90
2019-02-06T12:20:38.684Z,4.40
2019-02-06T12:23:07.849Z,4.47
2019-02-06T12:25:37.007Z,4.60
2019-02-06T12:28:06.728Z,4.80
2019-02-06T12:30:35.934Z,4.57
2019-02-06T12:33:05.261Z,4.47
2019-02-06T12:35:34.471Z,4.20
2019-02-06T12:38:03.691Z,4.07
2019-02-06T12:40:32.879Z,4.50
2019-02-06T12:43:02.082Z,4.20
2019-02-06T12:45:31.936Z,3.77
2019-02-06T12:48:01.092Z,3.67
2019-02-06T12:50:30.314Z,3.93
2019-02-06T12:52:59.840Z,4.10
2019-02-06T12:55:33.460Z,4.00
2019-02-06T12:58:02.686Z,3.70
2019-02-06T13:00:32.816Z,4.37
2019-02-06T13:03:02.008Z,4.40
2019-02-06T13:05:31.414Z,3.70
2019-02-06T13:08:00.714Z,4.00
2019-02-06T13:10:33.953Z,3.57
2019-02-06T13:13:00.759Z,3.60
2019-02-06T13:15:30.026Z,3.80
2019-02-06T13:17:59.377Z,4.10
2019-02-06T13:20:29.676Z,3.97
2019-02-06T13:22:58.966Z,3.70
2019-02-06T13:25:28.152Z,3.80
2019-02-06T13:27:57.449Z,4.17
2019-02-06T13:30:36.662Z,3.77
2019-02-06T13:33:06.962Z,3.33
2019-02-06T13:35:36.804Z,3.80
2019-02-06T13:38:06.095Z,4.10
2019-02-06T13:40:45.244Z,3.60
2019-02-06T13:43:06.293Z,3.77
2019-02-06T13:45:38.525Z,3.70
2019-02-06T13:48:07.734Z,3.70
2019-02-06T13:50:36.979Z,4.03
2019-02-06T13:53:06.374Z,4.07
2019-02-06T13:55:35.580Z,3.97
2019-02-06T13:58:05.306Z,3.97
2019-02-06T14:00:35.433Z,4.20
2019-02-06T14:03:04.744Z,3.90
2019-02-06T14:05:33.961Z,3.67
2019-02-06T14:08:14.394Z,3.53
2019-02-06T14:10:44.064Z,4.00
2019-02-06T14:13:13.291Z,4.13
2019-02-06T14:15:44.173Z,4.30
2019-02-06T14:18:13.489Z,4.27
2019-02-06T14:20:42.798Z,4.57
2019-02-06T14:23:14.834Z,3.90
2019-02-06T14:25:52.256Z,3.90
2019-02-06T14:28:49.809Z,3.90
2019-02-06T14:31:41.891Z,4.10
2019-02-06T14:34:41.877Z,4.10
2019-02-06T14:37:53.021Z,4.13
2019-02-06T14:41:08.723Z,4.07
2019-02-06T14:44:25.031Z,4.03
2019-02-06T14:47:21.978Z,3.83
2019-02-06T14:50:31.562Z,4.17
2019-02-06T14:53:14.157Z,3.90
2019-02-06T14:56:15.982Z,3.80
2019-02-06T14:59:04.974Z,4.27
2019-02-06T15:02:20.610Z,4.00
2019-02-06T15:05:36.226Z,2.90
2019-02-06T15:08:28.695Z,2.60
2019-02-06T15:11:25.515Z,3.17
2019-02-06T15:14:39.141Z,3.33
2019-02-06T15:17:54.691Z,3.20
2019-02-06T15:20:44.696Z,3.20
2019-02-06T15:24:01.618Z,3.40
2019-02-06T15:26:50.639Z,2.93
2019-02-06T15:30:03.074Z,3.20
2019-02-06T15:33:24.022Z,3.50
2019-02-06T15:36:37.630Z,3.60
2019-02-06T15:39:44.742Z,3.13
2019-02-06T15:42:51.313Z,3.17
2019-02-06T15:45:38.620Z,3.97
2019-02-06T15:48:40.986Z,3.57
2019-02-06T15:51:43.556Z,3.30
2019-02-06T15:55:05.992Z,3.53
2019-02-06T15:58:31.798Z,3.20
2019-02-06T16:01:25.343Z,3.60
2019-02-06T16:04:52.993Z,3.60
2019-02-06T16:07:48.855Z,3.37
2019-02-06T16:10:51.158Z,3.10
2019-02-06T16:13:44.077Z,3.60
2019-02-06T16:16:45.696Z,3.87
2019-02-06T16:19:40.532Z,4.30
2019-02-06T16:22:25.380Z,3.73
2019-02-06T16:25:09.530Z,3.97
2019-02-06T16:27:57.046Z,3.90
2019-02-06T16:31:19.353Z,4.00
2019-02-06T16:34:26.882Z,3.53
2019-02-06T16:37:18.225Z,3.70
2019-02-06T16:40:09.714Z,3.47
2019-02-06T16:42:57.154Z,3.57
2019-02-06T16:45:55.829Z,3.57
2019-02-06T16:48:47.791Z,4.13
2019-02-06T16:52:03.393Z,3.40
2019-02-06T16:55:11.858Z,3.37
2019-02-06T16:58:07.072Z,3.40
2019-02-06T17:01:11.741Z,3.60
2019-02-06T17:04:20.053Z,3.77
2019-02-06T17:07:14.496Z,3.70
2019-02-06T17:10:05.418Z,3.27
2019-02-06T17:13:07.371Z,2.97
2019-02-06T17:16:26.598Z,3.60
2019-02-06T17:19:32.821Z,3.13
2019-02-06T17:22:45.382Z,3.30
2019-02-06T17:25:57.229Z,3.27
2019-02-06T17:28:41.935Z,3.23
2019-02-06T17:31:57.730Z,3.83
2019-02-06T17:34:58.881Z,3.30
2019-02-06T17:37:56.635Z,3.33
2019-02-06T17:40:49.440Z,3.03
2019-02-06T17:43:34.625Z,3.10
2019-02-06T17:46:35.150Z,2.80
2019-02-06T17:49:28.176Z,3.10
2019-02-06T17:52:17.561Z,3.43
2019-02-06T17:55:26.939Z,3.33
2019-02-06T17:58:01.294Z,3.20
2019-02-06T18:00:54.125Z,3.40
2019-02-06T18:03:23.789Z,3.20
2019-02-06T18:05:53.028Z,3.07
2019-02-06T18:08:22.249Z,3.60
2019-02-06T18:10:51.537Z,2.80
2019-02-06T18:13:20.782Z,3.33
2019-02-06T18:15:50.007Z,3.47
2019-02-06T18:18:19.215Z,3.37
2019-02-06T18:20:48.554Z,3.27
2019-02-06T18:23:17.792Z,3.13
2019-02-06T18:25:47.132Z,4.00
2019-02-06T18:28:16.317Z,4.97
2019-02-06T18:30:45.785Z,3.93
2019-02-06T18:33:15.012Z,3.43
2019-02-06T18:35:44.197Z,3.77
2019-02-06T18:38:13.475Z,3.70
2019-02-06T18:40:43.917Z,3.50
2019-02-06T18:43:13.169Z,2.80
2019-02-06T18:45:44.366Z,3.57
2019-02-06T18:48:14.711Z,3.40
2019-02-06T18:50:49.315Z,3.30
2019-02-06T18:53:19.131Z,4.43
2019-02-06T18:55:51.129Z,3.70
2019-02-06T18:58:19.558Z,3.60
2019-02-06T19:00:49.100Z,4.00
2019-02-06T19:03:26.638Z,4.63
2019-02-06T19:05:55.444Z,3.77
2019-02-06T19:09:13.857Z,4.47
2019-02-06T19:11:43.254Z,4.83
2019-02-06T19:14:12.530Z,5.87
2019-02-06T19:16:41.900Z,5.40
2019-02-06T19:19:11.162Z,6.37
2019-02-06T19:21:40.427Z,7.20
2019-02-06T19:24:10.479Z,7.10
2019-02-06T19:26:40.396Z,7.23
2019-02-06T19:29:11.263Z,6.70
2019-02-06T19:31:42.306Z,6.37
2019-02-06T19:34:11.878Z,6.93
2019-02-06T19:36:41.274Z,6.60
2019-02-06T19:39:10.578Z,5.80
2019-02-06T19:41:40.003Z,7.00
2019-02-06T19:44:11.304Z,6.00
2019-02-06T19:46:40.186Z,6.70
2019-02-06T19:49:09.815Z,6.87
2019-02-06T19:51:39.135Z,6.80
2019-02-06T19:54:08.377Z,7.33
2019-02-06T19:56:37.600Z,6.77
2019-02-06T19:59:06.802Z,6.53
2019-02-06T20:01:36.213Z,6.13
2019-02-06T20:04:05.845Z,6.40
2019-02-06T20:06:35.702Z,7.13
2019-02-06T20:09:10.076Z,6.37
2019-02-06T20:11:39.383Z,7.00
2019-02-06T20:14:08.597Z,6.90
2019-02-06T20:16:37.851Z,7.10
2019-02-06T20:19:07.369Z,6.37
2019-02-06T20:21:37.774Z,6.90
2019-02-06T20:24:07.269Z,7.10
2019-02-06T20:26:36.508Z,6.83
2019-02-06T20:29:05.755Z,6.20
2019-02-06T20:31:34.967Z,6.70
2019-02-06T20:34:04.285Z,7.67
2019-02-06T20:40:01.261Z,6.80
2019-02-06T20:42:31.156Z,7.13
2019-02-06T20:45:00.425Z,7.50
2019-02-06T20:47:29.658Z,7.23
2019-02-06T20:49:58.934Z,6.80
2019-02-06T20:52:28.167Z,7.03
2019-02-06T20:54:57.688Z,6.73
2019-02-06T20:57:26.934Z,6.87
2019-02-06T20:59:56.723Z,5.63
2019-02-06T21:02:25.986Z,7.13
2019-02-06T21:04:55.239Z,6.03
2019-02-06T21:07:24.678Z,6.37
2019-02-06T21:09:53.921Z,5.93
2019-02-06T21:12:23.446Z,5.73
2019-02-06T21:14:52.714Z,6.87
2019-02-06T21:17:21.929Z,6.87
2019-02-06T21:19:51.183Z,6.33
2019-02-06T21:22:20.412Z,6.13
2019-02-06T21:24:49.590Z,6.03
2019-02-06T21:27:18.886Z,7.03
2019-02-06T21:29:48.077Z,5.93
2019-02-06T21:32:17.431Z,6.40
2019-02-06T21:34:46.962Z,6.13
2019-02-06T21:37:16.288Z,5.50
2019-02-06T21:39:45.519Z,6.70
2019-02-06T21:42:14.726Z,5.63
2019-02-06T21:44:44.000Z,6.07
2019-02-06T21:47:13.837Z,6.17
2019-02-06T21:49:43.094Z,5.23
2019-02-06T21:52:12.373Z,6.27
2019-02-06T21:54:41.709Z,5.70
2019-02-06T21:57:10.900Z,6.40
2019-02-06T21:59:40.162Z,5.73
2019-02-06T22:02:19.264Z,6.30
2019-02-06T22:04:49.644Z,7.03
2019-02-06T22:07:20.796Z,7.67
2019-02-06T22:09:50.497Z,8.40
2019-02-06T22:12:19.746Z,8.70
2019-02-06T22:14:49.006Z,8.23
2019-02-06T22:17:18.347Z,7.77
2019-02-06T22:19:47.605Z,7.80
2019-02-06T22:22:17.367Z,8.53
2019-02-06T22:24:48.834Z,7.80
2019-02-06T22:27:19.331Z,8.40
2019-02-06T22:29:48.977Z,7.53
2019-02-06T22:32:20.428Z,8.40
2019-02-06T22:34:49.918Z,7.93
2019-02-06T22:37:19.137Z,8.10
2019-02-06T22:39:49.674Z,8.83
2019-02-06T22:42:19.186Z,8.77
2019-02-06T22:44:48.412Z,8.87
2019-02-06T22:47:17.671Z,9.07
2019-02-06T22:49:46.917Z,8.93
2019-02-06T22:52:16.196Z,10.10
2019-02-06T22:54:45.408Z,9.63
2019-02-06T22:57:14.947Z,9.53
2019-02-06T22:59:47.523Z,10.20
2019-02-06T23:02:16.750Z,10.27
2019-02-06T23:04:46.555Z,9.20
2019-02-06T23:07:15.737Z,8.63
2019-02-06T23:09:47.346Z,9.60
2019-02-06T23:12:17.402Z,9.13
2019-02-06T23:14:46.617Z,9.13
2019-02-06T23:17:15.813Z,9.57
2019-02-06T23:19:45.065Z,8.73
2019-02-06T23:22:14.322Z,9.80
2019-02-06T23:24:43.723Z,9.40
2019-02-06T23:27:12.926Z,7.33
2019-02-06T23:29:42.152Z,7.97
2019-02-06T23:32:11.330Z,8.80
2019-02-06T23:34:40.787Z,8.50
2019-02-06T23:37:11.502Z,8.97
2019-02-06T23:39:41.020Z,8.03
2019-02-06T23:42:10.238Z,7.33
2019-02-06T23:44:39.829Z,7.90
2019-02-06T23:47:09.023Z,8.17
2019-02-06T23:49:38.308Z,6.97
2019-02-06T23:52:07.855Z,7.23
2019-02-06T23:54:37.473Z,7.77
2019-02-06T23:57:06.663Z,7.73
2019-02-06T23:59:35.863Z,7.20
